sensor_id;sensor_type;location;lat;lon;timestamp;P1;durP1;ratioP1;P2;durP2;ratioP2
6105;SDS011;3083;51.508;7.966;2022-12-07T00:00:36;77.73;;;25.03;;
6105;SDS011;3083;51.508;7.966;2022-12-07T00:03:03;79.30;;;25.20;;
6105;SDS011;3083;51.508;7.966;2022-12-07T00:05:29;82.77;;;24.83;;
6105;SDS011;3083;51.508;7.966;2022-12-07T00:07:56;82.23;;;25.00;;
6105;SDS011;3083;51.508;7.966;2022-12-07T00:10:23;87.60;;;26.57;;
6105;SDS011;3083;51.508;7.966;2022-12-07T00:12:50;86.87;;;23.33;;
6105;SDS011;3083;51.508;7.966;2022-12-07T00:15:19;85.57;;;25.07;;
6105;SDS011;3083;51.508;7.966;2022-12-07T00:17:45;85.47;;;26.50;;
6105;SDS011;3083;51.508;7.966;2022-12-07T00:20:12;96.57;;;25.10;;
6105;SDS011;3083;51.508;7.966;2022-12-07T00:22:39;78.27;;;24.17;;
6105;SDS011;3083;51.508;7.966;2022-12-07T00:25:06;86.77;;;24.27;;
6105;SDS011;3083;51.508;7.966;2022-12-07T00:27:33;77.33;;;25.90;;
6105;SDS011;3083;51.508;7.966;2022-12-07T00:30:00;85.90;;;26.40;;
6105;SDS011;3083;51.508;7.966;2022-12-07T00:32:29;81.37;;;25.00;;
6105;SDS011;3083;51.508;7.966;2022-12-07T00:34:55;65.50;;;22.13;;
6105;SDS011;3083;51.508;7.966;2022-12-07T00:37:22;78.77;;;23.77;;
6105;SDS011;3083;51.508;7.966;2022-12-07T00:39:49;65.47;;;22.80;;
6105;SDS011;3083;51.508;7.966;2022-12-07T00:42:16;77.23;;;24.13;;
6105;SDS011;3083;51.508;7.966;2022-12-07T00:44:43;58.83;;;20.10;;
6105;SDS011;3083;51.508;7.966;2022-12-07T00:47:10;63.83;;;21.47;;
6105;SDS011;3083;51.508;7.966;2022-12-07T00:49:38;62.57;;;21.90;;
6105;SDS011;3083;51.508;7.966;2022-12-07T00:52:05;70.80;;;21.20;;
6105;SDS011;3083;51.508;7.966;2022-12-07T00:54:32;63.97;;;20.73;;
6105;SDS011;3083;51.508;7.966;2022-12-07T00:56:59;61.30;;;20.40;;
6105;SDS011;3083;51.508;7.966;2022-12-07T00:59:26;63.83;;;22.20;;
6105;SDS011;3083;51.508;7.966;2022-12-07T01:01:52;77.57;;;23.43;;
6105;SDS011;3083;51.508;7.966;2022-12-07T01:04:19;75.30;;;25.33;;
6105;SDS011;3083;51.508;7.966;2022-12-07T01:06:47;78.17;;;24.00;;
6105;SDS011;3083;51.508;7.966;2022-12-07T01:09:14;63.87;;;22.90;;
6105;SDS011;3083;51.508;7.966;2022-12-07T01:11:41;60.93;;;23.43;;
6105;SDS011;3083;51.508;7.966;2022-12-07T01:14:08;62.43;;;22.70;;
6105;SDS011;3083;51.508;7.966;2022-12-07T01:16:35;68.63;;;24.10;;
6105;SDS011;3083;51.508;7.966;2022-12-07T01:19:02;67.53;;;23.83;;
6105;SDS011;3083;51.508;7.966;2022-12-07T01:21:31;65.50;;;22.23;;
6105;SDS011;3083;51.508;7.966;2022-12-07T01:24:01;72.07;;;23.00;;
6105;SDS011;3083;51.508;7.966;2022-12-07T01:26:29;76.47;;;24.30;;
6105;SDS011;3083;51.508;7.966;2022-12-07T01:28:56;70.27;;;23.80;;
6105;SDS011;3083;51.508;7.966;2022-12-07T01:31:24;73.47;;;23.90;;
6105;SDS011;3083;51.508;7.966;2022-12-07T01:33:53;71.20;;;23.37;;
6105;SDS011;3083;51.508;7.966;2022-12-07T01:36:22;92.83;;;24.90;;
6105;SDS011;3083;51.508;7.966;2022-12-07T01:38:53;79.17;;;24.43;;
6105;SDS011;3083;51.508;7.966;2022-12-07T01:41:23;79.00;;;23.07;;
6105;SDS011;3083;51.508;7.966;2022-12-07T01:44:08;78.77;;;27.23;;
6105;SDS011;3083;51.508;7.966;2022-12-07T01:46:47;69.73;;;22.83;;
6105;SDS011;3083;51.508;7.966;2022-12-07T01:49:23;83.27;;;26.00;;
6105;SDS011;3083;51.508;7.966;2022-12-07T01:52:00;74.27;;;23.40;;
6105;SDS011;3083;51.508;7.966;2022-12-07T01:54:34;70.40;;;22.20;;
6105;SDS011;3083;51.508;7.966;2022-12-07T01:57:03;86.70;;;24.57;;
6105;SDS011;3083;51.508;7.966;2022-12-07T01:59:33;66.90;;;22.83;;
6105;SDS011;3083;51.508;7.966;2022-12-07T02:02:01;79.43;;;22.67;;
6105;SDS011;3083;51.508;7.966;2022-12-07T02:04:30;67.57;;;21.87;;
6105;SDS011;3083;51.508;7.966;2022-12-07T02:06:57;65.70;;;22.60;;
6105;SDS011;3083;51.508;7.966;2022-12-07T02:09:24;71.07;;;23.37;;
6105;SDS011;3083;51.508;7.966;2022-12-07T02:11:51;79.83;;;25.57;;
6105;SDS011;3083;51.508;7.966;2022-12-07T02:14:21;62.93;;;22.57;;
6105;SDS011;3083;51.508;7.966;2022-12-07T02:16:51;92.33;;;25.30;;
6105;SDS011;3083;51.508;7.966;2022-12-07T02:22:42;78.90;;;23.13;;
6105;SDS011;3083;51.508;7.966;2022-12-07T02:25:35;70.33;;;22.60;;
6105;SDS011;3083;51.508;7.966;2022-12-07T02:28:19;64.50;;;20.20;;
6105;SDS011;3083;51.508;7.966;2022-12-07T02:30:55;66.73;;;23.10;;
6105;SDS011;3083;51.508;7.966;2022-12-07T02:33:28;65.80;;;23.00;;
6105;SDS011;3083;51.508;7.966;2022-12-07T02:35:59;70.40;;;22.20;;
6105;SDS011;3083;51.508;7.966;2022-12-07T02:38:31;64.50;;;21.10;;
6105;SDS011;3083;51.508;7.966;2022-12-07T02:41:04;61.10;;;22.10;;
6105;SDS011;3083;51.508;7.966;2022-12-07T02:43:38;59.90;;;19.70;;
6105;SDS011;3083;51.508;7.966;2022-12-07T02:46:10;73.40;;;22.10;;
6105;SDS011;3083;51.508;7.966;2022-12-07T02:48:40;75.63;;;22.97;;
6105;SDS011;3083;51.508;7.966;2022-12-07T02:51:09;71.50;;;22.20;;
6105;SDS011;3083;51.508;7.966;2022-12-07T02:53:36;61.67;;;20.57;;
6105;SDS011;3083;51.508;7.966;2022-12-07T02:56:06;85.90;;;22.90;;
6105;SDS011;3083;51.508;7.966;2022-12-07T02:58:42;62.00;;;20.97;;
6105;SDS011;3083;51.508;7.966;2022-12-07T03:01:19;71.37;;;21.73;;
6105;SDS011;3083;51.508;7.966;2022-12-07T03:03:56;81.47;;;22.20;;
6105;SDS011;3083;51.508;7.966;2022-12-07T03:06:30;71.63;;;22.80;;
6105;SDS011;3083;51.508;7.966;2022-12-07T03:09:05;66.23;;;22.23;;
6105;SDS011;3083;51.508;7.966;2022-12-07T03:11:38;74.77;;;22.23;;
6105;SDS011;3083;51.508;7.966;2022-12-07T03:14:12;66.60;;;22.20;;
6105;SDS011;3083;51.508;7.966;2022-12-07T03:16:44;71.87;;;19.53;;
6105;SDS011;3083;51.508;7.966;2022-12-07T03:19:15;65.13;;;20.10;;
6105;SDS011;3083;51.508;7.966;2022-12-07T03:21:46;65.40;;;21.83;;
6105;SDS011;3083;51.508;7.966;2022-12-07T03:24:19;72.67;;;20.30;;
6105;SDS011;3083;51.508;7.966;2022-12-07T03:26:51;60.20;;;21.03;;
6105;SDS011;3083;51.508;7.966;2022-12-07T03:29:22;66.50;;;20.87;;
6105;SDS011;3083;51.508;7.966;2022-12-07T03:31:55;63.87;;;19.30;;
6105;SDS011;3083;51.508;7.966;2022-12-07T03:34:27;60.97;;;19.20;;
6105;SDS011;3083;51.508;7.966;2022-12-07T03:37:00;72.80;;;20.67;;
6105;SDS011;3083;51.508;7.966;2022-12-07T03:39:33;64.97;;;20.20;;
6105;SDS011;3083;51.508;7.966;2022-12-07T03:42:05;61.63;;;19.13;;
6105;SDS011;3083;51.508;7.966;2022-12-07T03:44:34;71.97;;;19.90;;
6105;SDS011;3083;51.508;7.966;2022-12-07T03:47:04;61.47;;;18.53;;
6105;SDS011;3083;51.508;7.966;2022-12-07T03:49:37;54.03;;;17.20;;
6105;SDS011;3083;51.508;7.966;2022-12-07T03:52:08;49.53;;;16.93;;
6105;SDS011;3083;51.508;7.966;2022-12-07T03:54:43;53.90;;;17.70;;
6105;SDS011;3083;51.508;7.966;2022-12-07T03:57:14;57.17;;;16.23;;
6105;SDS011;3083;51.508;7.966;2022-12-07T03:59:42;55.53;;;17.80;;
6105;SDS011;3083;51.508;7.966;2022-12-07T04:02:11;55.63;;;17.97;;
6105;SDS011;3083;51.508;7.966;2022-12-07T04:04:39;52.27;;;16.57;;
6105;SDS011;3083;51.508;7.966;2022-12-07T04:07:07;61.67;;;19.10;;
6105;SDS011;3083;51.508;7.966;2022-12-07T04:09:34;61.80;;;18.70;;
6105;SDS011;3083;51.508;7.966;2022-12-07T04:12:01;62.33;;;17.27;;
6105;SDS011;3083;51.508;7.966;2022-12-07T04:14:28;58.53;;;17.33;;
6105;SDS011;3083;51.508;7.966;2022-12-07T04:16:56;48.43;;;16.13;;
6105;SDS011;3083;51.508;7.966;2022-12-07T04:19:26;47.23;;;15.07;;
6105;SDS011;3083;51.508;7.966;2022-12-07T04:21:54;49.80;;;15.73;;
6105;SDS011;3083;51.508;7.966;2022-12-07T04:24:22;50.27;;;15.70;;
6105;SDS011;3083;51.508;7.966;2022-12-07T04:26:49;47.73;;;15.07;;
6105;SDS011;3083;51.508;7.966;2022-12-07T04:29:16;58.77;;;18.10;;
6105;SDS011;3083;51.508;7.966;2022-12-07T04:31:44;59.13;;;18.27;;
6105;SDS011;3083;51.508;7.966;2022-12-07T04:34:11;52.03;;;17.07;;
6105;SDS011;3083;51.508;7.966;2022-12-07T04:36:41;59.30;;;18.97;;
6105;SDS011;3083;51.508;7.966;2022-12-07T04:39:09;59.57;;;17.73;;
6105;SDS011;3083;51.508;7.966;2022-12-07T04:41:43;53.57;;;16.80;;
6105;SDS011;3083;51.508;7.966;2022-12-07T04:44:10;59.03;;;18.37;;
6105;SDS011;3083;51.508;7.966;2022-12-07T04:46:39;64.20;;;20.00;;
6105;SDS011;3083;51.508;7.966;2022-12-07T04:49:07;51.13;;;18.77;;
6105;SDS011;3083;51.508;7.966;2022-12-07T04:51:34;54.53;;;18.47;;
6105;SDS011;3083;51.508;7.966;2022-12-07T04:54:03;61.40;;;19.73;;
6105;SDS011;3083;51.508;7.966;2022-12-07T04:56:30;51.00;;;18.63;;
6105;SDS011;3083;51.508;7.966;2022-12-07T04:58:57;48.13;;;17.13;;
6105;SDS011;3083;51.508;7.966;2022-12-07T05:01:25;47.33;;;17.07;;
6105;SDS011;3083;51.508;7.966;2022-12-07T05:03:52;62.13;;;18.67;;
6105;SDS011;3083;51.508;7.966;2022-12-07T05:06:19;57.03;;;18.50;;
6105;SDS011;3083;51.508;7.966;2022-12-07T05:08:46;57.03;;;18.57;;
6105;SDS011;3083;51.508;7.966;2022-12-07T05:11:14;43.53;;;17.97;;
6105;SDS011;3083;51.508;7.966;2022-12-07T05:13:55;48.40;;;18.30;;
6105;SDS011;3083;51.508;7.966;2022-12-07T05:16:22;49.53;;;18.57;;
6105;SDS011;3083;51.508;7.966;2022-12-07T05:18:49;56.83;;;18.50;;
6105;SDS011;3083;51.508;7.966;2022-12-07T05:21:16;59.00;;;19.03;;
6105;SDS011;3083;51.508;7.966;2022-12-07T05:23:43;50.03;;;18.17;;
6105;SDS011;3083;51.508;7.966;2022-12-07T05:26:10;52.33;;;17.73;;
6105;SDS011;3083;51.508;7.966;2022-12-07T05:28:39;52.40;;;16.30;;
6105;SDS011;3083;51.508;7.966;2022-12-07T05:31:05;55.63;;;18.90;;
6105;SDS011;3083;51.508;7.966;2022-12-07T05:33:32;47.73;;;18.00;;
6105;SDS011;3083;51.508;7.966;2022-12-07T05:35:59;47.13;;;16.20;;
6105;SDS011;3083;51.508;7.966;2022-12-07T05:38:30;49.30;;;17.87;;
6105;SDS011;3083;51.508;7.966;2022-12-07T05:40:59;56.73;;;17.47;;
6105;SDS011;3083;51.508;7.966;2022-12-07T05:43:27;44.40;;;16.77;;
6105;SDS011;3083;51.508;7.966;2022-12-07T05:45:55;57.80;;;16.53;;
6105;SDS011;3083;51.508;7.966;2022-12-07T05:48:23;53.53;;;17.90;;
6105;SDS011;3083;51.508;7.966;2022-12-07T05:50:50;50.33;;;15.97;;
6105;SDS011;3083;51.508;7.966;2022-12-07T05:53:18;46.77;;;17.20;;
6105;SDS011;3083;51.508;7.966;2022-12-07T05:55:45;51.23;;;17.87;;
6105;SDS011;3083;51.508;7.966;2022-12-07T05:58:12;52.03;;;16.63;;
6105;SDS011;3083;51.508;7.966;2022-12-07T06:00:58;50.90;;;16.47;;
6105;SDS011;3083;51.508;7.966;2022-12-07T06:03:24;45.10;;;15.13;;
6105;SDS011;3083;51.508;7.966;2022-12-07T06:05:51;46.90;;;15.50;;
6105;SDS011;3083;51.508;7.966;2022-12-07T06:08:19;42.40;;;15.00;;
6105;SDS011;3083;51.508;7.966;2022-12-07T06:10:46;50.83;;;15.97;;
6105;SDS011;3083;51.508;7.966;2022-12-07T06:13:34;49.17;;;16.90;;
6105;SDS011;3083;51.508;7.966;2022-12-07T06:16:02;44.10;;;16.10;;
6105;SDS011;3083;51.508;7.966;2022-12-07T06:18:29;45.60;;;17.00;;
6105;SDS011;3083;51.508;7.966;2022-12-07T06:20:56;46.27;;;15.70;;
6105;SDS011;3083;51.508;7.966;2022-12-07T06:23:23;38.87;;;15.67;;
6105;SDS011;3083;51.508;7.966;2022-12-07T06:25:49;36.50;;;14.37;;
6105;SDS011;3083;51.508;7.966;2022-12-07T06:28:16;43.17;;;15.07;;
6105;SDS011;3083;51.508;7.966;2022-12-07T06:30:43;41.63;;;15.23;;
6105;SDS011;3083;51.508;7.966;2022-12-07T06:33:11;40.80;;;13.20;;
6105;SDS011;3083;51.508;7.966;2022-12-07T06:35:38;44.10;;;15.27;;
6105;SDS011;3083;51.508;7.966;2022-12-07T06:38:05;39.77;;;13.87;;
6105;SDS011;3083;51.508;7.966;2022-12-07T06:40:32;37.60;;;14.13;;
6105;SDS011;3083;51.508;7.966;2022-12-07T06:42:59;37.83;;;14.00;;
6105;SDS011;3083;51.508;7.966;2022-12-07T06:45:26;40.00;;;12.70;;
6105;SDS011;3083;51.508;7.966;2022-12-07T06:47:53;33.20;;;13.87;;
6105;SDS011;3083;51.508;7.966;2022-12-07T06:50:21;31.97;;;12.00;;
6105;SDS011;3083;51.508;7.966;2022-12-07T06:52:48;46.53;;;13.90;;
6105;SDS011;3083;51.508;7.966;2022-12-07T06:55:15;40.40;;;12.77;;
6105;SDS011;3083;51.508;7.966;2022-12-07T06:57:42;45.60;;;13.90;;
6105;SDS011;3083;51.508;7.966;2022-12-07T07:00:09;57.90;;;14.57;;
6105;SDS011;3083;51.508;7.966;2022-12-07T07:02:37;39.00;;;14.47;;
6105;SDS011;3083;51.508;7.966;2022-12-07T07:05:04;36.00;;;13.80;;
6105;SDS011;3083;51.508;7.966;2022-12-07T07:07:32;41.43;;;13.10;;
6105;SDS011;3083;51.508;7.966;2022-12-07T07:09:59;38.40;;;14.20;;
6105;SDS011;3083;51.508;7.966;2022-12-07T07:12:26;35.40;;;12.67;;
6105;SDS011;3083;51.508;7.966;2022-12-07T07:14:52;38.17;;;12.63;;
6105;SDS011;3083;51.508;7.966;2022-12-07T07:17:19;43.43;;;15.10;;
6105;SDS011;3083;51.508;7.966;2022-12-07T07:19:46;73.33;;;14.60;;
6105;SDS011;3083;51.508;7.966;2022-12-07T07:22:13;39.10;;;14.23;;
6105;SDS011;3083;51.508;7.966;2022-12-07T07:24:41;34.97;;;14.60;;
6105;SDS011;3083;51.508;7.966;2022-12-07T07:27:08;36.23;;;13.50;;
6105;SDS011;3083;51.508;7.966;2022-12-07T07:29:35;46.70;;;16.27;;
6105;SDS011;3083;51.508;7.966;2022-12-07T07:32:02;45.67;;;14.47;;
6105;SDS011;3083;51.508;7.966;2022-12-07T07:34:29;38.33;;;15.10;;
6105;SDS011;3083;51.508;7.966;2022-12-07T07:36:56;51.43;;;18.10;;
6105;SDS011;3083;51.508;7.966;2022-12-07T07:39:23;49.00;;;16.53;;
6105;SDS011;3083;51.508;7.966;2022-12-07T07:41:51;49.07;;;15.47;;
6105;SDS011;3083;51.508;7.966;2022-12-07T07:44:18;43.93;;;15.57;;
6105;SDS011;3083;51.508;7.966;2022-12-07T07:46:45;48.53;;;16.27;;
6105;SDS011;3083;51.508;7.966;2022-12-07T07:49:12;41.80;;;14.73;;
6105;SDS011;3083;51.508;7.966;2022-12-07T07:51:39;38.77;;;15.07;;
6105;SDS011;3083;51.508;7.966;2022-12-07T07:54:06;37.27;;;15.63;;
6105;SDS011;3083;51.508;7.966;2022-12-07T07:56:33;43.83;;;15.87;;
6105;SDS011;3083;51.508;7.966;2022-12-07T07:59:01;45.90;;;15.60;;
6105;SDS011;3083;51.508;7.966;2022-12-07T08:01:28;48.60;;;17.77;;
6105;SDS011;3083;51.508;7.966;2022-12-07T08:03:55;45.20;;;15.77;;
6105;SDS011;3083;51.508;7.966;2022-12-07T08:06:22;47.07;;;16.60;;
6105;SDS011;3083;51.508;7.966;2022-12-07T08:08:49;49.43;;;17.67;;
6105;SDS011;3083;51.508;7.966;2022-12-07T08:11:16;47.30;;;16.13;;
6105;SDS011;3083;51.508;7.966;2022-12-07T08:13:44;51.10;;;18.27;;
6105;SDS011;3083;51.508;7.966;2022-12-07T08:16:13;47.83;;;16.00;;
6105;SDS011;3083;51.508;7.966;2022-12-07T08:18:40;51.10;;;17.03;;
6105;SDS011;3083;51.508;7.966;2022-12-07T08:21:09;52.03;;;17.10;;
6105;SDS011;3083;51.508;7.966;2022-12-07T08:23:38;43.57;;;18.20;;
6105;SDS011;3083;51.508;7.966;2022-12-07T08:26:06;47.97;;;16.63;;
6105;SDS011;3083;51.508;7.966;2022-12-07T08:28:34;45.07;;;16.13;;
6105;SDS011;3083;51.508;7.966;2022-12-07T08:31:02;51.60;;;17.73;;
6105;SDS011;3083;51.508;7.966;2022-12-07T08:33:32;47.77;;;18.20;;
6105;SDS011;3083;51.508;7.966;2022-12-07T08:36:00;49.50;;;16.03;;
6105;SDS011;3083;51.508;7.966;2022-12-07T08:38:27;50.50;;;16.00;;
6105;SDS011;3083;51.508;7.966;2022-12-07T08:40:54;46.93;;;14.87;;
6105;SDS011;3083;51.508;7.966;2022-12-07T08:43:21;47.57;;;15.00;;
6105;SDS011;3083;51.508;7.966;2022-12-07T08:45:49;45.30;;;16.77;;
6105;SDS011;3083;51.508;7.966;2022-12-07T08:48:28;39.07;;;15.10;;
6105;SDS011;3083;51.508;7.966;2022-12-07T08:50:58;51.03;;;15.50;;
6105;SDS011;3083;51.508;7.966;2022-12-07T08:53:27;43.50;;;14.47;;
6105;SDS011;3083;51.508;7.966;2022-12-07T08:55:54;45.47;;;14.87;;
6105;SDS011;3083;51.508;7.966;2022-12-07T08:58:22;39.93;;;15.53;;
6105;SDS011;3083;51.508;7.966;2022-12-07T09:00:50;37.93;;;14.77;;
6105;SDS011;3083;51.508;7.966;2022-12-07T09:03:17;40.30;;;15.20;;
6105;SDS011;3083;51.508;7.966;2022-12-07T09:05:44;41.10;;;15.77;;
6105;SDS011;3083;51.508;7.966;2022-12-07T09:08:12;37.83;;;14.27;;
6105;SDS011;3083;51.508;7.966;2022-12-07T09:10:39;42.33;;;15.03;;
6105;SDS011;3083;51.508;7.966;2022-12-07T09:13:06;49.43;;;14.87;;
6105;SDS011;3083;51.508;7.966;2022-12-07T09:15:33;41.60;;;14.70;;
6105;SDS011;3083;51.508;7.966;2022-12-07T09:18:00;42.97;;;15.20;;
6105;SDS011;3083;51.508;7.966;2022-12-07T09:20:26;36.73;;;13.93;;
6105;SDS011;3083;51.508;7.966;2022-12-07T09:22:53;38.40;;;14.13;;
6105;SDS011;3083;51.508;7.966;2022-12-07T09:25:22;41.53;;;14.83;;
6105;SDS011;3083;51.508;7.966;2022-12-07T09:27:52;49.70;;;14.73;;
6105;SDS011;3083;51.508;7.966;2022-12-07T09:30:22;36.90;;;14.43;;
6105;SDS011;3083;51.508;7.966;2022-12-07T09:32:48;48.00;;;14.93;;
6105;SDS011;3083;51.508;7.966;2022-12-07T09:35:15;38.33;;;14.10;;
6105;SDS011;3083;51.508;7.966;2022-12-07T09:37:42;37.50;;;14.50;;
6105;SDS011;3083;51.508;7.966;2022-12-07T09:40:10;36.57;;;13.70;;
6105;SDS011;3083;51.508;7.966;2022-12-07T09:42:39;38.33;;;13.77;;
6105;SDS011;3083;51.508;7.966;2022-12-07T09:45:12;44.97;;;14.93;;
6105;SDS011;3083;51.508;7.966;2022-12-07T09:47:40;40.47;;;14.43;;
6105;SDS011;3083;51.508;7.966;2022-12-07T09:50:12;34.90;;;12.60;;
6105;SDS011;3083;51.508;7.966;2022-12-07T09:52:41;35.17;;;12.23;;
6105;SDS011;3083;51.508;7.966;2022-12-07T09:55:13;36.33;;;12.87;;
6105;SDS011;3083;51.508;7.966;2022-12-07T09:57:42;28.23;;;11.60;;
6105;SDS011;3083;51.508;7.966;2022-12-07T10:00:11;36.33;;;13.70;;
6105;SDS011;3083;51.508;7.966;2022-12-07T10:02:41;30.47;;;12.33;;
6105;SDS011;3083;51.508;7.966;2022-12-07T10:05:11;32.00;;;11.60;;
6105;SDS011;3083;51.508;7.966;2022-12-07T10:07:40;32.57;;;12.40;;
6105;SDS011;3083;51.508;7.966;2022-12-07T10:10:12;32.73;;;12.70;;
6105;SDS011;3083;51.508;7.966;2022-12-07T10:12:53;33.83;;;11.20;;
6105;SDS011;3083;51.508;7.966;2022-12-07T10:15:23;36.60;;;12.30;;
6105;SDS011;3083;51.508;7.966;2022-12-07T10:18:13;43.17;;;12.60;;
6105;SDS011;3083;51.508;7.966;2022-12-07T10:20:59;36.57;;;11.87;;
6105;SDS011;3083;51.508;7.966;2022-12-07T10:23:32;35.47;;;12.60;;
6105;SDS011;3083;51.508;7.966;2022-12-07T10:26:00;40.17;;;12.80;;
6105;SDS011;3083;51.508;7.966;2022-12-07T10:28:48;35.33;;;11.90;;
6105;SDS011;3083;51.508;7.966;2022-12-07T10:31:15;40.33;;;15.27;;
6105;SDS011;3083;51.508;7.966;2022-12-07T10:33:48;41.37;;;14.90;;
6105;SDS011;3083;51.508;7.966;2022-12-07T10:36:18;42.17;;;14.23;;
6105;SDS011;3083;51.508;7.966;2022-12-07T10:38:48;39.40;;;14.83;;
6105;SDS011;3083;51.508;7.966;2022-12-07T10:41:15;53.10;;;15.43;;
6105;SDS011;3083;51.508;7.966;2022-12-07T10:43:51;45.17;;;16.07;;
6105;SDS011;3083;51.508;7.966;2022-12-07T10:46:23;48.07;;;17.80;;
6105;SDS011;3083;51.508;7.966;2022-12-07T10:49:17;40.80;;;15.27;;
6105;SDS011;3083;51.508;7.966;2022-12-07T10:52:12;56.47;;;17.57;;
6105;SDS011;3083;51.508;7.966;2022-12-07T10:54:47;39.73;;;15.03;;
6105;SDS011;3083;51.508;7.966;2022-12-07T10:57:26;48.10;;;17.30;;
6105;SDS011;3083;51.508;7.966;2022-12-07T11:00:06;41.90;;;17.10;;
6105;SDS011;3083;51.508;7.966;2022-12-07T11:02:42;46.20;;;17.73;;
6105;SDS011;3083;51.508;7.966;2022-12-07T11:05:30;49.87;;;18.20;;
6105;SDS011;3083;51.508;7.966;2022-12-07T11:08:05;45.90;;;15.60;;
6105;SDS011;3083;51.508;7.966;2022-12-07T11:10:43;57.50;;;18.90;;
6105;SDS011;3083;51.508;7.966;2022-12-07T11:13:20;56.40;;;18.30;;
6105;SDS011;3083;51.508;7.966;2022-12-07T11:16:06;47.93;;;16.67;;
6105;SDS011;3083;51.508;7.966;2022-12-07T11:18:51;49.73;;;16.53;;
6105;SDS011;3083;51.508;7.966;2022-12-07T11:21:27;67.73;;;20.33;;
6105;SDS011;3083;51.508;7.966;2022-12-07T11:24:01;45.87;;;17.77;;
6105;SDS011;3083;51.508;7.966;2022-12-07T11:26:37;62.03;;;18.60;;
6105;SDS011;3083;51.508;7.966;2022-12-07T11:29:19;47.27;;;17.67;;
6105;SDS011;3083;51.508;7.966;2022-12-07T11:31:58;49.17;;;18.60;;
6105;SDS011;3083;51.508;7.966;2022-12-07T11:34:36;41.67;;;16.23;;
6105;SDS011;3083;51.508;7.966;2022-12-07T11:37:09;45.20;;;18.00;;
6105;SDS011;3083;51.508;7.966;2022-12-07T11:39:41;56.83;;;17.13;;
6105;SDS011;3083;51.508;7.966;2022-12-07T11:42:15;47.00;;;18.10;;
6105;SDS011;3083;51.508;7.966;2022-12-07T11:44:47;56.37;;;18.47;;
6105;SDS011;3083;51.508;7.966;2022-12-07T11:47:22;49.83;;;18.20;;
6105;SDS011;3083;51.508;7.966;2022-12-07T11:49:54;48.87;;;17.40;;
6105;SDS011;3083;51.508;7.966;2022-12-07T11:52:30;44.77;;;17.10;;
6105;SDS011;3083;51.508;7.966;2022-12-07T11:55:02;52.97;;;17.27;;
6105;SDS011;3083;51.508;7.966;2022-12-07T11:57:41;42.10;;;17.40;;
6105;SDS011;3083;51.508;7.966;2022-12-07T12:00:13;46.50;;;18.43;;
6105;SDS011;3083;51.508;7.966;2022-12-07T12:02:46;42.10;;;16.97;;
6105;SDS011;3083;51.508;7.966;2022-12-07T12:05:21;50.73;;;17.70;;
6105;SDS011;3083;51.508;7.966;2022-12-07T12:07:49;55.37;;;18.50;;
6105;SDS011;3083;51.508;7.966;2022-12-07T12:10:24;50.50;;;18.63;;
6105;SDS011;3083;51.508;7.966;2022-12-07T12:13:01;47.03;;;18.53;;
6105;SDS011;3083;51.508;7.966;2022-12-07T12:15:44;53.93;;;19.77;;
6105;SDS011;3083;51.508;7.966;2022-12-07T12:18:29;43.87;;;18.43;;
6105;SDS011;3083;51.508;7.966;2022-12-07T12:21:07;46.73;;;17.33;;
6105;SDS011;3083;51.508;7.966;2022-12-07T12:23:36;51.70;;;19.70;;
6105;SDS011;3083;51.508;7.966;2022-12-07T12:26:07;44.70;;;16.53;;
6105;SDS011;3083;51.508;7.966;2022-12-07T12:28:49;41.87;;;16.53;;
6105;SDS011;3083;51.508;7.966;2022-12-07T12:31:30;36.90;;;15.40;;
6105;SDS011;3083;51.508;7.966;2022-12-07T12:34:03;38.70;;;14.07;;
6105;SDS011;3083;51.508;7.966;2022-12-07T12:36:44;34.27;;;14.37;;
6105;SDS011;3083;51.508;7.966;2022-12-07T12:39:13;41.73;;;15.43;;
6105;SDS011;3083;51.508;7.966;2022-12-07T12:41:54;27.23;;;12.60;;
6105;SDS011;3083;51.508;7.966;2022-12-07T12:44:38;28.30;;;13.23;;
6105;SDS011;3083;51.508;7.966;2022-12-07T12:47:38;33.03;;;12.57;;
6105;SDS011;3083;51.508;7.966;2022-12-07T12:50:15;29.17;;;11.50;;
6105;SDS011;3083;51.508;7.966;2022-12-07T12:55:45;35.33;;;13.40;;
6105;SDS011;3083;51.508;7.966;2022-12-07T12:58:40;25.07;;;12.30;;
6105;SDS011;3083;51.508;7.966;2022-12-07T13:04:16;27.03;;;11.40;;
6105;SDS011;3083;51.508;7.966;2022-12-07T13:06:49;21.00;;;10.13;;
6105;SDS011;3083;51.508;7.966;2022-12-07T13:09:18;26.37;;;11.33;;
6105;SDS011;3083;51.508;7.966;2022-12-07T13:11:48;19.00;;;9.33;;
6105;SDS011;3083;51.508;7.966;2022-12-07T13:20:43;25.47;;;7.90;;
6105;SDS011;3083;51.508;7.966;2022-12-07T13:23:13;20.40;;;8.13;;
6105;SDS011;3083;51.508;7.966;2022-12-07T13:25:44;20.47;;;8.30;;
6105;SDS011;3083;51.508;7.966;2022-12-07T13:28:16;20.20;;;8.30;;
6105;SDS011;3083;51.508;7.966;2022-12-07T13:30:45;19.80;;;8.40;;
6105;SDS011;3083;51.508;7.966;2022-12-07T13:33:20;17.37;;;8.40;;
6105;SDS011;3083;51.508;7.966;2022-12-07T13:35:47;19.00;;;8.10;;
6105;SDS011;3083;51.508;7.966;2022-12-07T13:40:59;19.73;;;9.13;;
6105;SDS011;3083;51.508;7.966;2022-12-07T13:43:31;19.07;;;7.97;;
6105;SDS011;3083;51.508;7.966;2022-12-07T13:46:08;20.30;;;8.23;;
6105;SDS011;3083;51.508;7.966;2022-12-07T13:48:42;19.17;;;8.17;;
6105;SDS011;3083;51.508;7.966;2022-12-07T13:51:17;15.80;;;7.40;;
6105;SDS011;3083;51.508;7.966;2022-12-07T13:53:55;21.17;;;8.70;;
6105;SDS011;3083;51.508;7.966;2022-12-07T13:56:26;14.43;;;7.17;;
6105;SDS011;3083;51.508;7.966;2022-12-07T13:58:58;18.47;;;8.17;;
6105;SDS011;3083;51.508;7.966;2022-12-07T14:01:26;22.80;;;8.63;;
6105;SDS011;3083;51.508;7.966;2022-12-07T14:03:54;22.13;;;8.37;;
6105;SDS011;3083;51.508;7.966;2022-12-07T14:06:24;21.10;;;8.93;;
6105;SDS011;3083;51.508;7.966;2022-12-07T14:09:07;22.80;;;9.27;;
6105;SDS011;3083;51.508;7.966;2022-12-07T14:11:42;17.40;;;8.10;;
6105;SDS011;3083;51.508;7.966;2022-12-07T14:14:10;20.30;;;7.07;;
6105;SDS011;3083;51.508;7.966;2022-12-07T14:16:41;17.97;;;7.90;;
6105;SDS011;3083;51.508;7.966;2022-12-07T14:22:18;19.60;;;6.87;;
6105;SDS011;3083;51.508;7.966;2022-12-07T14:27:53;17.40;;;5.97;;
6105;SDS011;3083;51.508;7.966;2022-12-07T14:30:23;14.93;;;6.10;;
6105;SDS011;3083;51.508;7.966;2022-12-07T14:32:53;13.50;;;6.03;;
6105;SDS011;3083;51.508;7.966;2022-12-07T14:35:23;14.90;;;6.10;;
6105;SDS011;3083;51.508;7.966;2022-12-07T14:37:50;12.67;;;5.90;;
6105;SDS011;3083;51.508;7.966;2022-12-07T14:40:19;14.53;;;6.03;;
6105;SDS011;3083;51.508;7.966;2022-12-07T14:42:49;17.33;;;5.73;;
6105;SDS011;3083;51.508;7.966;2022-12-07T14:45:20;12.53;;;5.10;;
6105;SDS011;3083;51.508;7.966;2022-12-07T14:47:47;15.43;;;7.23;;
6105;SDS011;3083;51.508;7.966;2022-12-07T14:50:15;14.20;;;4.90;;
6105;SDS011;3083;51.508;7.966;2022-12-07T14:52:44;11.87;;;5.00;;
6105;SDS011;3083;51.508;7.966;2022-12-07T14:55:16;15.40;;;5.77;;
6105;SDS011;3083;51.508;7.966;2022-12-07T14:57:55;12.30;;;4.90;;
6105;SDS011;3083;51.508;7.966;2022-12-07T15:00:25;11.30;;;4.63;;
6105;SDS011;3083;51.508;7.966;2022-12-07T15:02:53;12.33;;;4.70;;
6105;SDS011;3083;51.508;7.966;2022-12-07T15:05:21;9.77;;;4.70;;
6105;SDS011;3083;51.508;7.966;2022-12-07T15:07:48;14.73;;;5.30;;
6105;SDS011;3083;51.508;7.966;2022-12-07T15:10:16;13.10;;;6.13;;
6105;SDS011;3083;51.508;7.966;2022-12-07T15:12:48;12.73;;;5.60;;
6105;SDS011;3083;51.508;7.966;2022-12-07T15:15:15;17.80;;;9.07;;
6105;SDS011;3083;51.508;7.966;2022-12-07T15:17:43;13.50;;;6.33;;
6105;SDS011;3083;51.508;7.966;2022-12-07T15:20:11;14.07;;;6.20;;
6105;SDS011;3083;51.508;7.966;2022-12-07T15:22:39;9.53;;;5.37;;
6105;SDS011;3083;51.508;7.966;2022-12-07T15:25:06;16.27;;;6.23;;
6105;SDS011;3083;51.508;7.966;2022-12-07T15:27:34;18.87;;;7.40;;
6105;SDS011;3083;51.508;7.966;2022-12-07T15:30:03;15.63;;;5.80;;
6105;SDS011;3083;51.508;7.966;2022-12-07T15:32:31;12.67;;;5.80;;
6105;SDS011;3083;51.508;7.966;2022-12-07T15:34:58;16.83;;;5.80;;